Terminal Aerodrome Forecast
Issued by NWS Cleveland, OH

Home | Current Version | Previous Version | Graphics & Text | Print | Product List | Glossary On
Versions: 1 2 3 4 5 6 7 8 9 10 11 12 13 14 15 16 17
000
FTUS41 KCLE 171740
TAFYNG
TAF
KYNG 171740Z 1718/1818 26015G25KT 3SM -SN OVC025
      TEMPO 1718/1721 1SM -SN OVC012
     FM172100 27015G25KT P6SM OVC035
     FM180200 26009KT P6SM OVC050
     FM181500 25006KT P6SM SKC=

USA.gov is the U.S. government's official web portal to all federal, state and local government web resources and services.